createdAt,value
2019-04-26T00:00:19.935Z,89.51
2019-04-26T00:01:19.927Z,90.03
2019-04-26T00:02:19.929Z,89.62
2019-04-26T00:03:19.917Z,89.31
2019-04-26T00:04:19.919Z,89.42
2019-04-26T00:05:19.886Z,89.21
2019-04-26T00:06:19.869Z,89.25
2019-04-26T00:07:19.879Z,89.66
2019-04-26T00:08:19.857Z,89.25
2019-04-26T00:09:19.869Z,89.25
2019-04-26T00:10:19.839Z,89.36
2019-04-26T00:11:19.819Z,89.25
2019-04-26T00:12:20.288Z,89.15
2019-04-26T00:13:20.404Z,89.50
2019-04-26T00:14:19.798Z,90.32
2019-04-26T00:15:19.818Z,90.73
2019-04-26T00:16:20.807Z,90.93
2019-04-26T00:17:19.758Z,90.93
2019-04-26T00:18:20.897Z,91.59
2019-04-26T00:19:19.727Z,91.80
2019-04-26T00:20:19.732Z,92.00
2019-04-26T00:21:19.736Z,92.31
2019-04-26T00:22:19.708Z,91.90
2019-04-26T00:23:19.739Z,91.69
2019-04-26T00:24:19.690Z,91.59
2019-04-26T00:25:19.668Z,93.19
2019-04-26T00:26:19.721Z,93.19
2019-04-26T00:27:19.657Z,92.68
2019-04-26T00:28:19.640Z,92.57
2019-04-26T00:29:19.655Z,92.47
2019-04-26T00:30:19.617Z,92.16
2019-04-26T00:31:19.596Z,92.47
2019-04-26T00:32:19.594Z,91.86
2019-04-26T00:33:19.587Z,91.44
2019-04-26T00:34:19.678Z,91.44
2019-04-26T00:35:19.920Z,92.16
2019-04-26T00:36:20.601Z,91.82
2019-04-26T00:37:20.201Z,91.82
2019-04-26T00:38:20.407Z,91.55
2019-04-26T00:39:20.347Z,91.35
2019-04-26T00:40:20.334Z,91.24
2019-04-26T00:41:20.532Z,91.75
2019-04-26T00:42:20.579Z,92.06
2019-04-26T00:43:20.512Z,92.36
2019-04-26T00:44:20.796Z,92.68
2019-04-26T00:45:19.466Z,92.47
2019-04-26T00:46:19.615Z,92.36
2019-04-26T00:47:19.459Z,92.16
2019-04-26T00:48:21.030Z,92.47
2019-04-26T00:49:19.509Z,92.57
2019-04-26T00:50:19.636Z,92.78
2019-04-26T00:51:19.407Z,93.02
2019-04-26T00:52:19.527Z,92.93
2019-04-26T00:53:19.658Z,93.74
2019-04-26T00:54:20.165Z,93.44
2019-04-26T00:55:19.651Z,93.19
2019-04-26T00:56:20.155Z,92.88
2019-04-26T00:57:20.233Z,93.08
2019-04-26T00:58:20.345Z,92.88
2019-04-26T00:59:20.434Z,93.29
2019-04-26T01:00:19.540Z,93.19
2019-04-26T01:01:19.283Z,92.98
2019-04-26T01:02:19.263Z,93.08
2019-04-26T01:03:19.274Z,92.68
2019-04-26T01:04:19.242Z,92.98
2019-04-26T01:05:19.252Z,92.43
2019-04-26T01:06:19.223Z,91.61
2019-04-26T01:07:19.214Z,90.79
2019-04-26T01:08:19.291Z,89.92
2019-04-26T01:09:19.490Z,89.51
2019-04-26T01:10:19.656Z,89.31
2019-04-26T01:11:19.694Z,89.17
2019-04-26T01:12:19.719Z,88.86
2019-04-26T01:13:19.900Z,88.96
2019-04-26T01:14:19.945Z,88.56
2019-04-26T01:15:20.445Z,89.06
2019-04-26T01:16:20.123Z,88.56
2019-04-26T01:17:20.303Z,88.35
2019-04-26T01:18:20.125Z,88.14
2019-04-26T01:19:19.104Z,88.14
2019-04-26T01:20:19.103Z,88.24
2019-04-26T01:21:19.086Z,88.35
2019-04-26T01:22:19.340Z,88.76
2019-04-26T01:23:19.062Z,88.86
2019-04-26T01:24:19.378Z,89.27
2019-04-26T01:25:19.014Z,89.68
2019-04-26T01:26:19.244Z,89.51
2019-04-26T01:27:19.528Z,89.51
2019-04-26T01:28:19.698Z,89.51
2019-04-26T01:29:19.640Z,89.72
2019-04-26T01:30:19.647Z,89.62
2019-04-26T01:31:19.868Z,89.11
2019-04-26T01:32:19.220Z,89.21
2019-04-26T01:33:20.028Z,88.65
2019-04-26T01:34:19.276Z,88.35
2019-04-26T01:35:19.351Z,88.35
2019-04-26T01:36:19.584Z,88.56
2019-04-26T01:37:19.271Z,88.35
2019-04-26T01:38:19.250Z,88.35
2019-04-26T01:39:19.696Z,88.35
2019-04-26T01:40:19.835Z,88.00
2019-04-26T01:41:19.789Z,87.79
2019-04-26T01:42:18.842Z,88.10
2019-04-26T01:43:18.832Z,87.90
2019-04-26T01:44:18.832Z,87.59
2019-04-26T01:45:20.208Z,87.38
2019-04-26T01:46:18.800Z,87.14
2019-04-26T01:47:20.058Z,86.73
2019-04-26T01:48:18.784Z,86.94
2019-04-26T01:49:19.726Z,87.14
2019-04-26T01:50:18.783Z,86.53
2019-04-26T01:51:18.742Z,86.63
2019-04-26T01:52:18.729Z,86.73
2019-04-26T01:53:18.735Z,86.94
2019-04-26T01:54:18.714Z,86.43
2019-04-26T01:55:18.707Z,86.22
2019-04-26T01:56:18.723Z,85.91
2019-04-26T01:57:18.683Z,85.71
2019-04-26T01:58:18.673Z,85.67
2019-04-26T01:59:18.660Z,85.67
2019-04-26T02:00:18.671Z,85.16
2019-04-26T02:01:18.656Z,85.16
2019-04-26T02:02:18.652Z,85.36
2019-04-26T02:03:18.618Z,85.57
2019-04-26T02:04:18.834Z,85.06
2019-04-26T02:05:19.149Z,85.06
2019-04-26T02:06:25.258Z,85.06
2019-04-26T02:07:20.264Z,85.26
2019-04-26T02:08:18.879Z,85.16
2019-04-26T02:09:18.807Z,85.02
2019-04-26T02:10:18.781Z,85.32
2019-04-26T02:11:18.541Z,84.50
2019-04-26T02:12:18.549Z,84.91
2019-04-26T02:13:18.513Z,84.81
2019-04-26T02:14:18.500Z,84.50
2019-04-26T02:15:18.490Z,84.41
2019-04-26T02:16:18.481Z,84.61
2019-04-26T02:17:18.460Z,84.61
2019-04-26T02:18:18.469Z,84.61
2019-04-26T02:19:18.458Z,84.30
2019-04-26T02:20:18.427Z,83.89
2019-04-26T02:21:18.416Z,84.00
2019-04-26T02:22:18.406Z,83.89
2019-04-26T02:23:18.390Z,84.30
2019-04-26T02:24:18.400Z,84.50
2019-04-26T02:25:18.420Z,84.00
2019-04-26T02:26:18.368Z,84.09
2019-04-26T02:27:18.348Z,84.09
2019-04-26T02:28:18.339Z,84.09
2019-04-26T02:29:18.357Z,83.69
2019-04-26T02:30:18.322Z,84.00
2019-04-26T02:31:18.310Z,84.00
2019-04-26T02:32:18.297Z,83.79
2019-04-26T02:33:18.346Z,83.69
2019-04-26T02:34:18.360Z,83.69
2019-04-26T02:35:18.308Z,83.48
2019-04-26T02:36:18.258Z,83.59
2019-04-26T02:37:18.248Z,83.69
2019-04-26T02:38:18.232Z,84.00
2019-04-26T02:39:18.230Z,83.69
2019-04-26T02:40:18.229Z,83.38
2019-04-26T02:41:18.198Z,83.89
2019-04-26T02:42:18.191Z,83.28
2019-04-26T02:43:18.188Z,83.28
2019-04-26T02:44:21.699Z,83.28
2019-04-26T02:45:18.180Z,83.18
2019-04-26T02:46:18.147Z,83.79
2019-04-26T02:47:18.138Z,84.00
2019-04-26T02:48:18.133Z,83.28
2019-04-26T02:49:18.119Z,83.69
2019-04-26T02:50:18.107Z,83.59
2019-04-26T02:51:18.109Z,83.48
2019-04-26T02:52:18.078Z,83.48
2019-04-26T02:53:18.067Z,83.69
2019-04-26T02:54:18.058Z,83.18
2019-04-26T02:55:18.046Z,83.07
2019-04-26T02:56:18.055Z,83.28
2019-04-26T02:57:18.026Z,83.07
2019-04-26T02:58:18.018Z,84.00
2019-04-26T02:59:18.039Z,82.87
2019-04-26T03:00:17.995Z,82.36
2019-04-26T03:01:17.986Z,82.97
2019-04-26T03:02:17.991Z,82.77
2019-04-26T03:03:17.960Z,82.70
2019-04-26T03:04:17.949Z,82.97
2019-04-26T03:05:17.939Z,83.11
2019-04-26T03:06:17.930Z,83.22
2019-04-26T03:07:17.949Z,83.32
2019-04-26T03:08:17.917Z,83.32
2019-04-26T03:09:17.896Z,82.91
2019-04-26T03:10:17.889Z,82.70
2019-04-26T03:11:18.035Z,83.22
2019-04-26T03:12:17.868Z,83.83
2019-04-26T03:13:17.926Z,83.42
2019-04-26T03:14:17.849Z,83.22
2019-04-26T03:15:17.835Z,83.62
2019-04-26T03:16:17.818Z,83.42
2019-04-26T03:17:17.814Z,83.32
2019-04-26T03:18:17.798Z,83.22
2019-04-26T03:19:17.816Z,83.52
2019-04-26T03:20:17.830Z,83.52
2019-04-26T03:21:17.778Z,83.52
2019-04-26T03:22:17.784Z,83.73
2019-04-26T03:23:17.756Z,83.42
2019-04-26T03:24:17.737Z,83.32
2019-04-26T03:25:17.768Z,83.11
2019-04-26T03:26:17.731Z,83.18
2019-04-26T03:27:17.707Z,83.38
2019-04-26T03:28:17.706Z,83.07
2019-04-26T03:29:17.677Z,83.28
2019-04-26T03:30:21.761Z,83.07
2019-04-26T03:31:19.130Z,83.07
2019-04-26T03:32:17.647Z,83.07
2019-04-26T03:33:17.732Z,83.79
2019-04-26T03:34:17.858Z,82.97
2019-04-26T03:35:17.629Z,82.97
2019-04-26T03:36:17.650Z,83.07
2019-04-26T03:37:20.629Z,83.38
2019-04-26T03:38:17.596Z,83.48
2019-04-26T03:39:17.578Z,83.38
2019-04-26T03:40:17.579Z,83.28
2019-04-26T03:41:17.623Z,83.38
2019-04-26T03:42:17.577Z,83.48
2019-04-26T03:43:17.538Z,83.69
2019-04-26T03:44:17.531Z,83.48
2019-04-26T03:45:17.518Z,83.89
2019-04-26T03:46:17.506Z,83.69
2019-04-26T03:47:17.517Z,84.09
2019-04-26T03:48:17.487Z,84.09
2019-04-26T03:49:17.474Z,83.89
2019-04-26T03:50:17.456Z,84.41
2019-04-26T03:51:17.829Z,84.20
2019-04-26T03:52:18.072Z,84.20
2019-04-26T03:53:17.485Z,84.09
2019-04-26T03:54:17.607Z,84.41
2019-04-26T03:55:17.404Z,84.14
2019-04-26T03:56:18.013Z,84.55
2019-04-26T03:57:17.844Z,84.55
2019-04-26T03:58:17.380Z,84.34
2019-04-26T03:59:17.397Z,84.55
2019-04-26T04:00:17.384Z,84.95
2019-04-26T04:01:17.340Z,84.95
2019-04-26T04:02:17.326Z,84.95
2019-04-26T04:03:17.314Z,85.06
2019-04-26T04:04:17.304Z,85.26
2019-04-26T04:05:17.318Z,85.36
2019-04-26T04:06:17.302Z,86.08
2019-04-26T04:07:17.277Z,86.08
2019-04-26T04:08:17.276Z,86.18
2019-04-26T04:09:18.095Z,86.22
2019-04-26T04:10:17.244Z,86.73
2019-04-26T04:11:17.236Z,86.63
2019-04-26T04:12:17.343Z,86.83
2019-04-26T04:13:17.208Z,87.35
2019-04-26T04:14:17.403Z,87.24
2019-04-26T04:15:17.753Z,87.35
2019-04-26T04:16:18.708Z,87.76
2019-04-26T04:17:17.483Z,88.06
2019-04-26T04:18:17.942Z,87.96
2019-04-26T04:19:17.437Z,88.57
2019-04-26T04:20:17.426Z,88.68
2019-04-26T04:21:17.494Z,89.12
2019-04-26T04:22:17.136Z,89.53
2019-04-26T04:23:17.105Z,89.84
2019-04-26T04:24:17.093Z,90.36
2019-04-26T04:25:17.108Z,90.66
2019-04-26T04:26:17.103Z,91.07
2019-04-26T04:27:17.062Z,91.17
2019-04-26T04:28:17.045Z,91.73
2019-04-26T04:29:17.055Z,91.11
2019-04-26T04:30:17.034Z,91.63
2019-04-26T04:31:17.025Z,91.83
2019-04-26T04:32:17.065Z,92.24
2019-04-26T04:33:16.995Z,92.44
2019-04-26T04:34:16.982Z,92.34
2019-04-26T04:35:16.979Z,92.85
2019-04-26T04:36:16.954Z,92.75
2019-04-26T04:37:16.973Z,92.65
2019-04-26T04:38:16.965Z,92.96
2019-04-26T04:39:16.938Z,92.55
2019-04-26T04:40:16.929Z,92.96
2019-04-26T04:41:16.922Z,92.59
2019-04-26T04:42:16.938Z,93.10
2019-04-26T04:43:17.055Z,93.30
2019-04-26T04:44:16.905Z,92.79
2019-04-26T04:45:16.859Z,93.00
2019-04-26T04:46:17.033Z,93.10
2019-04-26T04:47:24.401Z,93.10
2019-04-26T04:48:17.844Z,93.00
2019-04-26T04:49:16.861Z,93.41
2019-04-26T04:50:18.087Z,93.41
2019-04-26T04:51:16.814Z,93.51
2019-04-26T04:52:16.814Z,93.62
2019-04-26T04:53:16.771Z,93.62
2019-04-26T04:54:16.782Z,92.49
2019-04-26T04:55:16.780Z,92.79
2019-04-26T04:56:16.741Z,92.79
2019-04-26T04:57:16.742Z,93.00
2019-04-26T04:58:16.976Z,93.10
2019-04-26T04:59:16.710Z,93.41
2019-04-26T05:00:16.720Z,93.00
2019-04-26T05:01:16.693Z,92.18
2019-04-26T05:02:16.692Z,92.18
2019-04-26T05:03:16.689Z,91.56
2019-04-26T05:04:16.661Z,91.67
2019-04-26T05:05:16.658Z,91.56
2019-04-26T05:06:16.651Z,91.77
2019-04-26T05:07:16.629Z,91.56
2019-04-26T05:08:16.612Z,91.77
2019-04-26T05:09:16.611Z,91.97
2019-04-26T05:10:16.610Z,91.97
2019-04-26T05:11:16.582Z,92.08
2019-04-26T05:12:16.593Z,91.77
2019-04-26T05:13:16.553Z,91.97
2019-04-26T05:14:16.568Z,92.49
2019-04-26T05:15:16.542Z,92.28
2019-04-26T05:16:17.041Z,92.79
2019-04-26T05:17:16.548Z,92.59
2019-04-26T05:18:16.519Z,92.90
2019-04-26T05:19:16.509Z,92.79
2019-04-26T05:20:16.478Z,92.79
2019-04-26T05:21:16.512Z,93.30
2019-04-26T05:22:16.461Z,93.00
2019-04-26T05:23:16.462Z,93.00
2019-04-26T05:24:16.464Z,93.20
2019-04-26T05:25:16.430Z,93.51
2019-04-26T05:26:16.421Z,94.64
2019-04-26T05:27:16.427Z,94.37
2019-04-26T05:28:16.419Z,93.86
2019-04-26T05:29:16.394Z,93.96
2019-04-26T05:30:16.394Z,94.27
2019-04-26T05:31:16.402Z,95.09
2019-04-26T05:32:16.372Z,94.89
2019-04-26T05:33:16.345Z,94.99
2019-04-26T05:34:16.334Z,95.61
2019-04-26T05:35:17.216Z,96.22
2019-04-26T05:36:16.932Z,96.32
2019-04-26T05:37:17.083Z,96.88
2019-04-26T05:38:18.470Z,96.67
2019-04-26T05:39:16.714Z,96.98
2019-04-26T05:40:16.671Z,96.98
2019-04-26T05:41:16.426Z,97.19
2019-04-26T05:42:16.611Z,97.29
2019-04-26T05:43:16.308Z,97.39
2019-04-26T05:44:16.325Z,97.70
2019-04-26T05:45:16.348Z,97.49
2019-04-26T05:46:16.444Z,97.60
2019-04-26T05:47:16.288Z,97.91
2019-04-26T05:48:16.200Z,98.11
2019-04-26T05:49:16.448Z,98.32
2019-04-26T05:50:16.310Z,98.52
2019-04-26T05:51:16.364Z,98.72
2019-04-26T05:52:16.214Z,98.72
2019-04-26T05:53:16.383Z,98.83
2019-04-26T05:54:16.247Z,99.13
2019-04-26T05:55:16.186Z,99.13
2019-04-26T05:56:16.377Z,98.83
2019-04-26T05:57:16.238Z,98.32
2019-04-26T05:58:16.394Z,98.00
2019-04-26T05:59:16.127Z,98.00
2019-04-26T06:00:16.172Z,98.00
2019-04-26T06:01:16.224Z,97.80
2019-04-26T06:02:16.031Z,98.00
2019-04-26T06:03:16.068Z,98.32
2019-04-26T06:04:16.215Z,98.62
2019-04-26T06:05:16.147Z,98.42
2019-04-26T06:06:16.043Z,98.72
2019-04-26T06:07:16.031Z,98.83
2019-04-26T06:08:16.081Z,98.93
2019-04-26T06:09:16.072Z,98.83
2019-04-26T06:10:16.132Z,98.52
2019-04-26T06:11:16.054Z,98.83
2019-04-26T06:12:16.042Z,99.13
2019-04-26T06:13:15.999Z,99.24
2019-04-26T06:14:16.026Z,99.24
2019-04-26T06:15:16.126Z,99.44
2019-04-26T06:16:16.063Z,98.93
2019-04-26T06:17:15.936Z,98.62
2019-04-26T06:18:15.960Z,99.03
2019-04-26T06:19:15.985Z,99.34
2019-04-26T06:20:22.696Z,99.54
2019-04-26T06:21:16.952Z,99.85
2019-04-26T06:22:15.826Z,99.95
2019-04-26T06:23:16.131Z,99.99
2019-04-26T06:24:15.841Z,99.95
2019-04-26T06:25:15.905Z,99.54
2019-04-26T06:26:15.878Z,99.29
2019-04-26T06:27:15.858Z,99.29
2019-04-26T06:28:15.798Z,99.60
2019-04-26T06:29:15.883Z,99.60
2019-04-26T06:30:15.762Z,99.09
2019-04-26T06:31:15.856Z,98.47
2019-04-26T06:32:15.803Z,98.47
2019-04-26T06:33:15.790Z,98.63
2019-04-26T06:34:15.810Z,97.81
2019-04-26T06:35:15.694Z,98.33
2019-04-26T06:36:15.877Z,98.63
2019-04-26T06:37:15.849Z,98.38
2019-04-26T06:38:16.096Z,97.77
2019-04-26T06:39:15.806Z,96.95
2019-04-26T06:40:15.632Z,96.95
2019-04-26T06:41:15.701Z,96.74
2019-04-26T06:42:15.629Z,97.25
2019-04-26T06:43:15.701Z,97.46
2019-04-26T06:44:15.614Z,97.92
2019-04-26T06:45:15.615Z,98.13
2019-04-26T06:46:15.729Z,98.18
2019-04-26T06:47:15.810Z,98.58
2019-04-26T06:48:15.770Z,97.87
2019-04-26T06:49:15.683Z,97.46
2019-04-26T06:50:15.640Z,97.66
2019-04-26T06:51:24.118Z,97.77
2019-04-26T06:52:16.539Z,97.87
2019-04-26T06:53:15.740Z,98.07
2019-04-26T06:54:15.559Z,98.28
2019-04-26T06:55:15.582Z,98.38
2019-04-26T06:56:15.536Z,98.38
2019-04-26T06:57:15.481Z,98.07
2019-04-26T06:58:15.548Z,98.02
2019-04-26T06:59:17.235Z,97.91
2019-04-26T07:00:15.523Z,97.81
2019-04-26T07:01:15.411Z,98.02
2019-04-26T07:02:15.457Z,98.53
2019-04-26T07:03:15.613Z,98.74
2019-04-26T07:04:15.850Z,98.83
2019-04-26T07:05:15.607Z,99.15
2019-04-26T07:06:15.502Z,99.10
2019-04-26T07:07:15.337Z,98.99
2019-04-26T07:08:15.528Z,98.33
2019-04-26T07:09:15.441Z,98.07
2019-04-26T07:10:15.380Z,97.97
2019-04-26T07:11:15.385Z,98.07
2019-04-26T07:12:15.283Z,97.97
2019-04-26T07:13:15.340Z,98.18
2019-04-26T07:14:15.305Z,97.87
2019-04-26T07:15:27.707Z,97.15
2019-04-26T07:16:22.291Z,97.05
2019-04-26T07:17:16.356Z,96.95
2019-04-26T07:18:15.278Z,96.54
2019-04-26T07:19:15.274Z,96.44
2019-04-26T07:20:15.282Z,97.05
2019-04-26T07:21:16.362Z,96.64
2019-04-26T07:22:15.189Z,96.84
2019-04-26T07:23:15.298Z,97.05
2019-04-26T07:24:15.298Z,96.74
2019-04-26T07:25:17.715Z,97.25
2019-04-26T07:26:15.152Z,97.05
2019-04-26T07:27:15.128Z,97.66
2019-04-26T07:28:15.369Z,97.66
2019-04-26T07:29:15.243Z,97.15
2019-04-26T07:30:15.249Z,96.44
2019-04-26T07:31:15.104Z,96.33
2019-04-26T07:32:15.174Z,96.84
2019-04-26T07:33:15.298Z,96.84
2019-04-26T07:34:15.053Z,96.84
2019-04-26T07:35:15.198Z,96.54
2019-04-26T07:36:15.110Z,96.54
2019-04-26T07:37:15.080Z,96.64
2019-04-26T07:38:15.097Z,96.33
2019-04-26T07:39:19.938Z,95.92
2019-04-26T07:40:16.089Z,96.70
2019-04-26T07:41:14.993Z,96.19
2019-04-26T07:42:14.973Z,95.88
2019-04-26T07:43:15.378Z,96.29
2019-04-26T07:44:15.121Z,96.70
2019-04-26T07:45:15.035Z,96.29
2019-04-26T07:46:15.066Z,96.29
2019-04-26T07:47:15.452Z,95.57
2019-04-26T07:48:14.951Z,95.26
2019-04-26T07:49:14.959Z,95.88
2019-04-26T07:50:14.962Z,96.19
2019-04-26T07:51:14.907Z,96.39
2019-04-26T07:52:15.243Z,95.47
2019-04-26T07:53:14.884Z,95.17
2019-04-26T07:54:14.888Z,94.24
2019-04-26T07:55:14.905Z,94.24
2019-04-26T07:56:14.827Z,93.84
2019-04-26T07:57:14.960Z,94.55
2019-04-26T07:58:14.932Z,95.73
2019-04-26T07:59:14.894Z,94.92
2019-04-26T08:00:15.465Z,94.71
2019-04-26T08:01:14.815Z,94.40
2019-04-26T08:02:15.850Z,93.89
2019-04-26T08:03:15.127Z,92.60
2019-04-26T08:04:14.781Z,94.14
2019-04-26T08:05:14.733Z,94.51
2019-04-26T08:06:14.723Z,94.92
2019-04-26T08:07:15.352Z,94.30
2019-04-26T08:08:15.047Z,93.07
2019-04-26T08:09:26.507Z,93.28
2019-04-26T08:10:15.852Z,93.07
2019-04-26T08:11:15.012Z,93.69
2019-04-26T08:12:14.720Z,93.07
2019-04-26T08:13:15.262Z,93.28
2019-04-26T08:14:14.749Z,93.69
2019-04-26T08:15:15.630Z,93.99
2019-04-26T08:16:14.754Z,93.38
2019-04-26T08:17:14.924Z,91.95
2019-04-26T08:18:15.233Z,92.05
2019-04-26T08:19:14.757Z,91.85
2019-04-26T08:20:15.469Z,92.77
2019-04-26T08:21:17.352Z,92.77
2019-04-26T08:22:20.408Z,93.13
2019-04-26T08:23:37.223Z,91.91
2019-04-26T08:24:16.661Z,91.39
2019-04-26T08:25:14.580Z,91.39
2019-04-26T08:26:15.449Z,91.50
2019-04-26T08:27:22.610Z,91.66
2019-04-26T08:28:16.437Z,90.84
2019-04-26T08:29:14.727Z,90.74
2019-04-26T08:30:16.113Z,89.78
2019-04-26T08:31:15.458Z,90.08
2019-04-26T08:32:18.681Z,89.67
2019-04-26T08:33:14.801Z,89.78
2019-04-26T08:34:14.523Z,89.06
2019-04-26T08:35:18.839Z,89.98
2019-04-26T08:36:15.433Z,90.19
2019-04-26T08:37:14.821Z,90.04
2019-04-26T08:38:21.941Z,90.14
2019-04-26T08:39:15.924Z,88.10
2019-04-26T08:40:23.284Z,87.84
2019-04-26T08:41:15.549Z,88.92
2019-04-26T08:42:20.064Z,90.04
2019-04-26T08:43:15.442Z,90.10
2019-04-26T08:44:14.505Z,88.47
2019-04-26T08:45:15.285Z,89.23
2019-04-26T08:46:14.258Z,88.78
2019-04-26T08:47:21.097Z,89.49
2019-04-26T08:48:15.263Z,88.98
2019-04-26T08:49:15.144Z,86.67
2019-04-26T08:50:15.197Z,87.35
2019-04-26T08:51:15.358Z,87.96
2019-04-26T08:52:15.265Z,86.43
2019-04-26T08:53:14.186Z,88.06
2019-04-26T08:54:14.249Z,86.88
2019-04-26T08:55:14.179Z,86.47
2019-04-26T08:56:15.270Z,88.37
2019-04-26T08:57:14.138Z,85.71
2019-04-26T08:58:14.125Z,85.45
2019-04-26T08:59:14.156Z,86.77
2019-04-26T09:00:15.422Z,86.53
2019-04-26T09:01:14.094Z,86.02
2019-04-26T09:02:14.086Z,86.33
2019-04-26T09:03:14.080Z,85.30
2019-04-26T09:04:14.055Z,85.10
2019-04-26T09:05:14.090Z,85.41
2019-04-26T09:06:14.047Z,84.39
2019-04-26T09:07:14.029Z,85.10
2019-04-26T09:08:14.016Z,86.08
2019-04-26T09:09:14.357Z,85.57
2019-04-26T09:10:14.025Z,87.06
2019-04-26T09:11:25.602Z,86.04
2019-04-26T09:12:23.032Z,86.06
2019-04-26T09:13:14.977Z,84.33
2019-04-26T09:14:13.958Z,83.98
2019-04-26T09:15:13.945Z,83.07
2019-04-26T09:16:14.062Z,83.37
2019-04-26T09:17:13.917Z,83.68
2019-04-26T09:18:13.928Z,84.19
2019-04-26T09:19:13.909Z,83.62
2019-04-26T09:20:13.896Z,83.45
2019-04-26T09:21:17.490Z,83.29
2019-04-26T09:22:14.874Z,84.86
2019-04-26T09:23:13.845Z,83.63
2019-04-26T09:24:13.837Z,83.78
2019-04-26T09:25:13.827Z,84.90
2019-04-26T09:26:13.864Z,84.28
2019-04-26T09:27:17.075Z,84.18
2019-04-26T09:28:14.809Z,84.42
2019-04-26T09:29:13.785Z,85.45
2019-04-26T09:30:13.784Z,85.96
2019-04-26T09:31:15.370Z,85.18
2019-04-26T09:32:14.765Z,85.28
2019-04-26T09:33:13.812Z,86.10
2019-04-26T09:34:13.727Z,85.49
2019-04-26T09:35:15.306Z,86.00
2019-04-26T09:36:13.722Z,85.35
2019-04-26T09:37:13.714Z,85.86
2019-04-26T09:38:13.767Z,86.26
2019-04-26T09:39:13.699Z,85.10
2019-04-26T09:40:19.734Z,84.45
2019-04-26T09:41:14.674Z,84.04
2019-04-26T09:42:13.660Z,82.71
2019-04-26T09:43:15.156Z,82.31
2019-04-26T09:44:13.645Z,82.10
2019-04-26T09:45:13.617Z,84.00
2019-04-26T09:46:13.627Z,82.17
2019-04-26T09:47:13.593Z,81.86
2019-04-26T09:48:13.590Z,81.66
2019-04-26T09:49:13.621Z,83.29
2019-04-26T09:50:15.447Z,82.00
2019-04-26T09:51:13.570Z,83.49
2019-04-26T09:52:13.536Z,83.33
2019-04-26T09:53:13.535Z,83.53
2019-04-26T09:54:15.400Z,82.00
2019-04-26T09:55:13.518Z,81.09
2019-04-26T09:56:13.508Z,82.41
2019-04-26T09:57:13.509Z,81.56
2019-04-26T09:58:13.480Z,82.68
2019-04-26T09:59:13.468Z,80.23
2019-04-26T10:00:14.309Z,81.35
2019-04-26T10:01:13.507Z,81.45
2019-04-26T10:02:13.440Z,79.62
2019-04-26T10:03:13.428Z,81.04
2019-04-26T10:04:13.418Z,81.62
2019-04-26T10:05:13.626Z,79.79
2019-04-26T10:06:13.379Z,81.21
2019-04-26T10:07:13.413Z,80.40
2019-04-26T10:08:14.559Z,78.66
2019-04-26T10:09:13.356Z,79.52
2019-04-26T10:10:22.707Z,79.41
2019-04-26T10:11:14.338Z,79.41
2019-04-26T10:12:13.338Z,80.84
2019-04-26T10:13:15.059Z,81.82
2019-04-26T10:14:13.297Z,82.43
2019-04-26T10:15:13.285Z,81.48
2019-04-26T10:16:13.284Z,81.01
2019-04-26T10:17:15.799Z,79.58
2019-04-26T10:18:13.275Z,80.50
2019-04-26T10:19:13.264Z,81.82
2019-04-26T10:20:13.243Z,81.79
2019-04-26T10:21:13.235Z,80.09
2019-04-26T10:22:13.248Z,80.09
2019-04-26T10:23:13.240Z,80.13
2019-04-26T10:24:13.238Z,80.84
2019-04-26T10:25:16.763Z,80.74
2019-04-26T10:26:13.214Z,82.47
2019-04-26T10:27:13.175Z,81.66
2019-04-26T10:28:15.982Z,81.56
2019-04-26T10:29:13.137Z,82.17
2019-04-26T10:30:13.139Z,82.03
2019-04-26T10:31:13.465Z,81.04
2019-04-26T10:32:13.109Z,81.66
2019-04-26T10:33:13.107Z,80.43
2019-04-26T10:34:13.132Z,80.43
2019-04-26T10:35:13.131Z,80.94
2019-04-26T10:36:13.057Z,81.25
2019-04-26T10:37:13.046Z,81.45
2019-04-26T10:38:13.115Z,82.98
2019-04-26T10:39:13.031Z,82.98
2019-04-26T10:40:13.017Z,82.17
2019-04-26T10:41:13.032Z,83.49
2019-04-26T10:42:13.041Z,82.07
2019-04-26T10:43:13.023Z,81.18
2019-04-26T10:44:13.020Z,82.98
2019-04-26T10:45:14.682Z,80.84
2019-04-26T10:46:12.936Z,81.96
2019-04-26T10:47:15.626Z,80.84
2019-04-26T10:48:13.979Z,81.11
2019-04-26T10:49:12.933Z,80.09
2019-04-26T10:50:12.907Z,79.62
2019-04-26T10:51:12.891Z,80.84
2019-04-26T10:52:15.864Z,80.33
2019-04-26T10:53:12.889Z,79.52
2019-04-26T10:54:12.876Z,79.58
2019-04-26T10:55:16.091Z,79.58
2019-04-26T10:56:12.836Z,79.07
2019-04-26T10:57:12.834Z,79.89
2019-04-26T10:58:12.836Z,79.38
2019-04-26T10:59:12.803Z,79.38
2019-04-26T11:00:14.132Z,80.29
2019-04-26T11:01:12.786Z,79.79
2019-04-26T11:02:13.656Z,79.34
2019-04-26T11:04:43.145Z,76.42
2019-04-26T11:05:43.485Z,78.77
2019-04-26T11:06:43.043Z,77.64
2019-04-26T11:07:43.038Z,77.95
2019-04-26T11:08:43.012Z,77.24
2019-04-26T11:09:43.007Z,77.75
2019-04-26T11:10:48.794Z,77.00
2019-04-26T11:11:43.872Z,77.20
2019-04-26T11:12:43.472Z,77.17
2019-04-26T11:13:42.942Z,78.08
2019-04-26T11:14:43.284Z,77.84
2019-04-26T11:15:42.915Z,74.45
2019-04-26T11:16:42.897Z,76.04
2019-04-26T11:17:46.022Z,73.30
2019-04-26T11:18:42.782Z,75.12
2019-04-26T11:19:44.255Z,73.91
2019-04-26T11:20:45.671Z,75.63
2019-04-26T11:21:42.757Z,74.48
2019-04-26T11:22:42.748Z,74.31
2019-04-26T11:23:45.469Z,73.77
2019-04-26T11:24:42.722Z,74.88
2019-04-26T11:25:42.697Z,73.63
2019-04-26T11:26:42.694Z,73.60
2019-04-26T11:27:44.372Z,73.29
2019-04-26T11:28:42.690Z,74.07
2019-04-26T11:29:53.248Z,71.33
2019-04-26T11:30:43.663Z,71.91
2019-04-26T11:31:42.648Z,70.96
2019-04-26T11:32:42.642Z,70.08
2019-04-26T11:33:45.032Z,66.98
2019-04-26T11:34:42.932Z,66.58
2019-04-26T11:35:42.604Z,69.78
2019-04-26T11:36:43.084Z,69.20
2019-04-26T11:37:42.635Z,68.29
2019-04-26T11:38:42.599Z,69.27
2019-04-26T11:39:42.565Z,70.39
2019-04-26T11:40:49.883Z,72.34
2019-04-26T11:41:43.959Z,71.94
2019-04-26T11:42:45.673Z,70.42
2019-04-26T11:43:42.593Z,69.13
2019-04-26T11:44:44.487Z,70.55
2019-04-26T11:45:45.426Z,69.87
2019-04-26T11:46:44.999Z,71.09
2019-04-26T11:47:54.222Z,70.08
2019-04-26T11:48:43.663Z,70.38
2019-04-26T11:49:43.026Z,70.79
2019-04-26T11:50:42.556Z,72.92
2019-04-26T11:51:42.423Z,70.48
2019-04-26T11:52:42.409Z,70.01
2019-04-26T11:53:44.781Z,72.28
2019-04-26T11:54:42.427Z,71.73
2019-04-26T11:55:42.380Z,71.84
2019-04-26T11:56:42.370Z,73.53
2019-04-26T11:57:43.687Z,72.17
2019-04-26T11:58:42.353Z,71.97
2019-04-26T11:59:42.334Z,72.11
2019-04-26T12:00:42.360Z,70.68
2019-04-26T12:01:42.311Z,72.21
2019-04-26T12:02:42.301Z,72.65
2019-04-26T12:03:42.288Z,72.52
2019-04-26T12:04:42.276Z,70.89
2019-04-26T12:05:42.277Z,70.68
2019-04-26T12:06:42.279Z,70.79
2019-04-26T12:07:42.253Z,71.80
2019-04-26T12:08:42.233Z,71.03
2019-04-26T12:09:42.243Z,70.62
2019-04-26T12:10:44.482Z,73.26
2019-04-26T12:11:49.519Z,73.36
2019-04-26T12:12:46.474Z,73.94
2019-04-26T12:13:42.188Z,71.80
2019-04-26T12:14:42.193Z,71.30
2019-04-26T12:15:43.974Z,71.09
2019-04-26T12:16:48.211Z,70.59
2019-04-26T12:17:43.138Z,70.72
2019-04-26T12:18:44.200Z,70.21
2019-04-26T12:19:42.128Z,70.65
2019-04-26T12:20:42.128Z,70.86
2019-04-26T12:21:42.091Z,71.33
2019-04-26T12:22:43.314Z,71.73
2019-04-26T12:23:42.065Z,72.75
2019-04-26T12:24:42.053Z,70.82
2019-04-26T12:25:43.589Z,72.31
2019-04-26T12:26:42.974Z,70.48
2019-04-26T12:27:42.187Z,70.68
2019-04-26T12:28:42.044Z,69.17
2019-04-26T12:29:44.204Z,70.28
2019-04-26T12:30:43.011Z,69.03
2019-04-26T12:31:42.005Z,70.68
2019-04-26T12:32:41.973Z,69.03
2019-04-26T12:33:43.736Z,70.25
2019-04-26T12:34:41.954Z,69.64
2019-04-26T12:35:41.924Z,68.59
2019-04-26T12:36:41.929Z,70.79
2019-04-26T12:37:41.934Z,68.87
2019-04-26T12:38:41.909Z,69.78
2019-04-26T12:39:42.878Z,68.35
2019-04-26T12:40:46.102Z,70.96
2019-04-26T12:41:41.889Z,70.25
2019-04-26T12:42:43.328Z,68.43
2019-04-26T12:43:42.839Z,69.74
2019-04-26T12:44:41.840Z,67.11
2019-04-26T12:45:41.822Z,68.02
2019-04-26T12:46:41.830Z,69.34
2019-04-26T12:47:41.826Z,69.13
2019-04-26T12:48:41.823Z,68.23
2019-04-26T12:49:43.130Z,67.18
2019-04-26T12:50:41.986Z,67.76
2019-04-26T12:51:42.916Z,68.36
2019-04-26T12:52:42.969Z,66.03
2019-04-26T12:53:43.491Z,67.18